createdAt,value
2022-07-30T00:00:28.416Z,17.20
2022-07-30T00:02:56.835Z,17.20
2022-07-30T00:05:24.879Z,17.20
2022-07-30T00:07:53.239Z,17.20
2022-07-30T00:10:21.316Z,17.20
2022-07-30T00:12:49.028Z,17.20
2022-07-30T00:15:17.180Z,17.10
2022-07-30T00:17:46.673Z,17.10
2022-07-30T00:20:17.218Z,17.00
2022-07-30T00:22:47.210Z,17.00
2022-07-30T00:25:15.052Z,16.90
2022-07-30T00:27:42.791Z,16.90
2022-07-30T00:30:10.848Z,16.90
2022-07-30T00:32:39.212Z,16.90
2022-07-30T00:35:07.682Z,16.90
2022-07-30T00:37:35.514Z,16.90
2022-07-30T00:40:03.677Z,16.90
2022-07-30T00:42:44.754Z,16.90
2022-07-30T00:45:15.257Z,17.00
2022-07-30T00:47:44.073Z,16.80
2022-07-30T00:50:13.213Z,16.70
2022-07-30T00:52:41.918Z,16.70
2022-07-30T00:55:13.352Z,16.60
2022-07-30T00:57:41.435Z,16.60
2022-07-30T01:00:12.936Z,16.50
2022-07-30T01:02:40.689Z,16.50
2022-07-30T01:05:08.754Z,16.60
2022-07-30T01:07:36.825Z,16.60
2022-07-30T01:10:07.523Z,16.60
2022-07-30T01:12:38.523Z,16.60
2022-07-30T01:15:08.890Z,16.60
2022-07-30T01:17:37.637Z,16.50
2022-07-30T01:20:14.210Z,16.50
2022-07-30T01:23:00.392Z,16.50
2022-07-30T01:25:43.063Z,16.50
2022-07-30T01:28:14.966Z,16.50
2022-07-30T01:30:47.710Z,16.50
2022-07-30T01:33:19.753Z,16.50
2022-07-30T01:35:50.010Z,16.50
2022-07-30T01:38:22.568Z,16.50
2022-07-30T01:40:53.055Z,16.60
2022-07-30T01:43:25.430Z,16.60
2022-07-30T01:45:54.804Z,16.60
2022-07-30T01:48:25.292Z,16.50
2022-07-30T01:50:57.803Z,16.60
2022-07-30T01:53:29.229Z,16.60
2022-07-30T01:55:58.548Z,16.60
2022-07-30T01:58:30.363Z,16.60
2022-07-30T02:01:01.524Z,16.60
2022-07-30T02:03:30.003Z,16.60
2022-07-30T02:06:22.383Z,16.50
2022-07-30T02:08:59.148Z,16.50
2022-07-30T02:11:45.395Z,16.40
2022-07-30T02:14:22.842Z,16.30
2022-07-30T02:16:54.426Z,16.30
2022-07-30T02:19:24.647Z,16.20
2022-07-30T02:22:11.490Z,16.20
2022-07-30T02:24:45.991Z,16.20
2022-07-30T02:27:17.162Z,16.20
2022-07-30T02:29:46.583Z,16.30
2022-07-30T02:32:18.844Z,16.30
2022-07-30T02:34:50.280Z,16.30
2022-07-30T02:37:42.783Z,16.20
2022-07-30T02:40:16.514Z,16.20
2022-07-30T02:42:47.757Z,16.20
2022-07-30T02:45:18.456Z,16.30
2022-07-30T02:48:05.752Z,16.30
2022-07-30T02:50:34.703Z,16.40
2022-07-30T02:53:11.720Z,16.40
2022-07-30T02:55:40.211Z,16.40
2022-07-30T02:58:09.790Z,16.40
2022-07-30T03:00:39.988Z,16.40
2022-07-30T03:03:09.162Z,16.30
2022-07-30T03:05:37.971Z,16.30
2022-07-30T03:08:06.774Z,16.40
2022-07-30T03:10:35.596Z,16.30
2022-07-30T03:13:07.918Z,16.30
2022-07-30T03:15:39.459Z,16.30
2022-07-30T03:18:11.398Z,16.20
2022-07-30T03:20:43.461Z,16.30
2022-07-30T03:23:13.332Z,16.30
2022-07-30T03:25:43.262Z,16.30
2022-07-30T03:28:12.465Z,16.30
2022-07-30T03:30:40.486Z,16.30
2022-07-30T03:33:08.922Z,16.30
2022-07-30T03:35:37.249Z,16.30
2022-07-30T03:38:06.259Z,16.40
2022-07-30T03:40:34.913Z,16.30
2022-07-30T03:43:05.723Z,16.30
2022-07-30T03:45:55.275Z,16.30
2022-07-30T03:48:23.817Z,16.30
2022-07-30T03:50:52.925Z,16.30
2022-07-30T03:53:25.596Z,16.40
2022-07-30T03:55:54.403Z,16.40
2022-07-30T03:58:22.355Z,16.50
2022-07-30T04:00:51.579Z,16.50
2022-07-30T04:03:30.230Z,16.50
2022-07-30T04:05:59.076Z,16.50
2022-07-30T04:08:28.286Z,16.60
2022-07-30T04:10:56.580Z,16.50
2022-07-30T04:13:24.353Z,16.50
2022-07-30T04:16:38.839Z,16.40
2022-07-30T04:19:10.011Z,16.40
2022-07-30T04:21:41.467Z,16.30
2022-07-30T04:24:11.159Z,16.40
2022-07-30T04:26:39.561Z,16.40
2022-07-30T04:29:13.411Z,16.40
2022-07-30T04:31:41.615Z,16.40
2022-07-30T04:34:13.690Z,16.60
2022-07-30T04:36:43.195Z,16.60
2022-07-30T04:39:11.173Z,16.60
2022-07-30T04:41:49.683Z,16.70
2022-07-30T04:44:19.656Z,16.80
2022-07-30T04:46:48.479Z,16.80
2022-07-30T04:49:20.217Z,16.80
2022-07-30T04:51:51.858Z,16.70
2022-07-30T04:54:23.445Z,16.70
2022-07-30T04:56:57.380Z,16.70
2022-07-30T04:59:26.459Z,16.80
2022-07-30T05:02:03.786Z,16.80
2022-07-30T05:04:35.376Z,16.90
2022-07-30T05:07:05.910Z,17.00
2022-07-30T05:09:34.290Z,17.10
2022-07-30T05:12:02.332Z,17.20
2022-07-30T05:14:31.558Z,17.30
2022-07-30T05:16:59.640Z,17.40
2022-07-30T05:19:27.656Z,17.40
2022-07-30T05:21:56.141Z,17.50
2022-07-30T05:24:24.919Z,17.60
2022-07-30T05:26:54.094Z,17.50
2022-07-30T05:29:21.800Z,17.50
2022-07-30T05:31:53.630Z,17.60
2022-07-30T05:34:21.809Z,17.60
2022-07-30T05:36:51.748Z,17.70
2022-07-30T05:39:19.880Z,17.80
2022-07-30T05:41:47.679Z,17.80
2022-07-30T05:44:17.062Z,17.90
2022-07-30T05:46:46.065Z,17.90
2022-07-30T05:49:14.535Z,18.00
2022-07-30T05:51:44.072Z,18.10
2022-07-30T05:54:13.700Z,18.10
2022-07-30T05:56:41.571Z,18.20
2022-07-30T05:59:09.128Z,18.30
2022-07-30T06:01:36.805Z,18.30
2022-07-30T06:04:04.679Z,18.50
2022-07-30T06:06:33.358Z,18.60
2022-07-30T06:09:02.862Z,18.60
2022-07-30T06:11:30.627Z,18.60
2022-07-30T06:14:01.738Z,18.60
2022-07-30T06:16:30.693Z,18.70
2022-07-30T06:19:00.940Z,18.80
2022-07-30T06:21:29.174Z,18.90
2022-07-30T06:24:17.763Z,18.90
2022-07-30T06:26:57.374Z,19.00
2022-07-30T06:29:25.680Z,19.00
2022-07-30T06:31:54.164Z,19.00
2022-07-30T06:34:22.588Z,19.10
2022-07-30T06:36:52.757Z,19.10
2022-07-30T06:39:57.701Z,19.20
2022-07-30T06:42:09.483Z,19.20
2022-07-30T06:44:37.437Z,19.20
2022-07-30T06:47:07.866Z,19.20
2022-07-30T06:49:37.717Z,19.20
2022-07-30T06:52:06.135Z,19.30
2022-07-30T06:54:34.615Z,19.50
2022-07-30T06:57:02.471Z,19.60
2022-07-30T06:59:30.914Z,19.70
2022-07-30T07:02:02.612Z,19.80
2022-07-30T07:04:33.974Z,19.90
2022-07-30T07:07:02.227Z,19.90
2022-07-30T07:09:44.840Z,19.90
2022-07-30T07:12:12.638Z,19.90
2022-07-30T07:14:40.367Z,20.00
2022-07-30T07:17:09.156Z,19.90
2022-07-30T07:20:00.198Z,19.90
2022-07-30T07:22:24.556Z,19.90
2022-07-30T07:24:52.127Z,19.90
2022-07-30T07:27:24.018Z,19.90
2022-07-30T07:30:05.578Z,19.90
2022-07-30T07:32:39.242Z,20.00
2022-07-30T07:35:11.414Z,20.10
2022-07-30T07:37:41.225Z,20.10
2022-07-30T07:40:12.397Z,20.10
2022-07-30T07:42:42.087Z,20.20
2022-07-30T07:45:14.254Z,20.20
2022-07-30T07:47:52.977Z,20.30
2022-07-30T07:50:23.710Z,20.40
2022-07-30T07:52:52.213Z,20.50
2022-07-30T07:55:20.565Z,20.60
2022-07-30T07:57:48.727Z,20.70
2022-07-30T08:00:20.915Z,20.70
2022-07-30T08:02:50.052Z,20.70
2022-07-30T08:05:18.684Z,20.70
2022-07-30T08:07:46.994Z,20.80
2022-07-30T08:10:16.447Z,20.90
2022-07-30T08:12:47.505Z,21.00
2022-07-30T08:15:17.078Z,21.00
2022-07-30T08:17:48.370Z,21.20
2022-07-30T08:20:20.644Z,21.10
2022-07-30T08:22:49.060Z,21.10
2022-07-30T08:25:24.399Z,21.10
2022-07-30T08:27:52.710Z,21.10
2022-07-30T08:30:21.963Z,21.10
2022-07-30T08:32:50.577Z,21.00
2022-07-30T08:35:18.913Z,20.80
2022-07-30T08:37:47.153Z,20.80
2022-07-30T08:40:21.385Z,20.60
2022-07-30T08:42:48.857Z,20.40
2022-07-30T08:45:18.617Z,20.20
2022-07-30T08:47:48.649Z,20.00
2022-07-30T08:50:17.748Z,20.00
2022-07-30T08:52:46.968Z,20.00
2022-07-30T08:55:14.984Z,19.90
2022-07-30T08:57:44.024Z,19.80
2022-07-30T09:00:12.528Z,19.80
2022-07-30T09:02:40.257Z,19.70
2022-07-30T09:05:08.968Z,19.60
2022-07-30T09:07:37.990Z,19.60
2022-07-30T09:10:10.173Z,19.50
2022-07-30T09:12:40.240Z,19.40
2022-07-30T09:15:08.002Z,19.20
2022-07-30T09:17:56.211Z,19.10
2022-07-30T09:20:48.092Z,19.10
2022-07-30T09:23:18.864Z,19.00
2022-07-30T09:25:52.463Z,19.00
2022-07-30T09:28:33.626Z,19.10
2022-07-30T09:31:02.780Z,19.10
2022-07-30T09:33:42.953Z,19.10
2022-07-30T09:36:16.075Z,19.20
2022-07-30T09:38:58.495Z,19.20
2022-07-30T09:41:39.805Z,19.20
2022-07-30T09:44:11.004Z,19.30
2022-07-30T09:46:52.111Z,19.20
2022-07-30T09:49:26.121Z,19.20
2022-07-30T09:51:57.812Z,19.10
2022-07-30T09:54:51.284Z,19.00
2022-07-30T09:57:26.673Z,18.90
2022-07-30T10:00:01.986Z,18.90
2022-07-30T10:02:36.169Z,18.80
2022-07-30T10:05:16.900Z,18.80
2022-07-30T10:07:58.267Z,18.70
2022-07-30T10:10:33.626Z,18.70
2022-07-30T10:13:08.476Z,18.70
2022-07-30T10:15:37.693Z,18.60
2022-07-30T10:18:09.019Z,18.60
2022-07-30T10:20:38.469Z,18.60
2022-07-30T10:23:09.749Z,18.50
2022-07-30T10:25:54.955Z,18.50
2022-07-30T10:28:27.222Z,18.50
2022-07-30T10:30:55.893Z,18.50
2022-07-30T10:33:35.010Z,18.50
2022-07-30T10:36:08.904Z,18.50
2022-07-30T10:38:42.846Z,18.50
2022-07-30T10:41:42.750Z,18.50
2022-07-30T10:44:15.930Z,18.50
2022-07-30T10:46:46.426Z,18.50
2022-07-30T10:49:18.840Z,18.50
2022-07-30T10:51:53.246Z,18.50
2022-07-30T10:54:39.582Z,18.50
2022-07-30T10:57:31.686Z,18.60
2022-07-30T11:00:03.824Z,18.60
2022-07-30T11:02:36.084Z,18.60
2022-07-30T11:05:43.705Z,18.60
2022-07-30T11:08:32.140Z,18.70
2022-07-30T11:11:19.155Z,18.60
2022-07-30T11:14:01.830Z,18.70
2022-07-30T11:16:32.998Z,18.70
2022-07-30T11:19:55.786Z,18.70
2022-07-30T11:22:33.112Z,18.70
2022-07-30T11:25:01.047Z,18.70
2022-07-30T11:28:04.654Z,18.70
2022-07-30T11:30:41.226Z,18.80
2022-07-30T11:33:12.365Z,18.70
2022-07-30T11:35:40.535Z,18.70
2022-07-30T11:38:18.660Z,18.70
2022-07-30T11:40:50.827Z,18.70
2022-07-30T11:43:41.963Z,18.60
2022-07-30T11:46:28.900Z,18.50
2022-07-30T11:49:09.392Z,18.50
2022-07-30T11:51:46.048Z,18.50
2022-07-30T11:54:16.242Z,18.40
2022-07-30T11:57:18.943Z,18.40
2022-07-30T11:59:57.393Z,18.40
2022-07-30T12:02:29.078Z,18.30
2022-07-30T12:05:06.608Z,18.30
2022-07-30T12:10:17.771Z,18.40
2022-07-30T12:13:07.896Z,18.40
2022-07-30T12:15:49.406Z,18.40
2022-07-30T12:18:28.881Z,18.40
2022-07-30T12:21:08.752Z,18.40
2022-07-30T12:23:39.370Z,18.50
2022-07-30T12:26:09.408Z,18.50
2022-07-30T12:28:39.926Z,18.50
2022-07-30T12:31:11.967Z,18.50
2022-07-30T12:33:42.964Z,18.60
2022-07-30T12:36:11.308Z,18.60
2022-07-30T12:38:49.394Z,18.60
2022-07-30T12:41:17.176Z,18.60
2022-07-30T12:44:03.453Z,18.60
2022-07-30T12:46:38.179Z,18.60
2022-07-30T12:49:21.340Z,18.60
2022-07-30T12:51:59.747Z,18.60
2022-07-30T12:54:29.707Z,18.70
2022-07-30T12:57:06.923Z,18.70
2022-07-30T12:59:35.652Z,18.70
2022-07-30T13:02:04.542Z,18.70
2022-07-30T13:04:37.098Z,18.70
2022-07-30T13:07:11.721Z,18.70
2022-07-30T13:09:46.610Z,18.70
2022-07-30T13:12:16.752Z,18.70
2022-07-30T13:14:45.128Z,18.70
2022-07-30T13:17:12.620Z,18.70
2022-07-30T13:19:40.951Z,18.70
2022-07-30T13:22:09.949Z,18.60
2022-07-30T13:24:41.873Z,18.60
2022-07-30T13:27:11.067Z,18.60
2022-07-30T13:29:38.863Z,18.60
2022-07-30T13:32:06.682Z,18.60
2022-07-30T13:34:34.783Z,18.60
2022-07-30T13:37:02.791Z,18.60
2022-07-30T13:39:30.711Z,18.50
2022-07-30T13:41:59.250Z,18.50
2022-07-30T13:44:28.086Z,18.50
2022-07-30T13:46:58.768Z,18.50
2022-07-30T13:49:29.497Z,18.50
2022-07-30T13:51:59.404Z,18.50
2022-07-30T13:54:27.537Z,18.40
2022-07-30T13:57:05.171Z,18.40
2022-07-30T13:59:34.084Z,18.40
2022-07-30T14:02:04.067Z,18.40
2022-07-30T14:04:31.682Z,18.40
2022-07-30T14:07:00.432Z,18.40
2022-07-30T14:09:28.684Z,18.40
2022-07-30T14:11:58.656Z,18.30
2022-07-30T14:14:26.354Z,18.40
2022-07-30T14:16:54.515Z,18.40
2022-07-30T14:19:23.485Z,18.40
2022-07-30T14:21:54.860Z,18.40
2022-07-30T14:24:23.807Z,18.40
2022-07-30T14:26:57.933Z,18.40
2022-07-30T14:29:27.822Z,18.40
2022-07-30T14:31:58.074Z,18.50
2022-07-30T14:34:25.968Z,18.50
2022-07-30T14:36:53.821Z,18.50
2022-07-30T14:39:21.749Z,18.50
2022-07-30T14:41:57.323Z,18.40
2022-07-30T14:44:26.010Z,18.40
2022-07-30T14:46:54.080Z,18.40
2022-07-30T14:49:23.927Z,18.40
2022-07-30T14:51:53.910Z,18.40
2022-07-30T14:54:22.234Z,18.40
2022-07-30T14:56:56.215Z,18.30
2022-07-30T14:59:28.013Z,18.30
2022-07-30T15:01:57.133Z,18.30
2022-07-30T15:04:25.743Z,18.30
2022-07-30T15:06:53.646Z,18.30
2022-07-30T15:09:22.030Z,18.30
2022-07-30T15:12:09.065Z,18.30
2022-07-30T15:14:42.059Z,18.30
2022-07-30T15:17:24.315Z,18.30
2022-07-30T15:19:52.144Z,18.30
2022-07-30T15:22:21.116Z,18.30
2022-07-30T15:24:49.086Z,18.30
2022-07-30T15:27:17.229Z,18.30
2022-07-30T15:29:45.499Z,18.20
2022-07-30T15:32:13.253Z,18.20
2022-07-30T15:34:40.828Z,18.20
2022-07-30T15:37:08.781Z,18.20
2022-07-30T15:39:37.459Z,18.20
2022-07-30T15:42:06.942Z,18.20
2022-07-30T15:44:36.284Z,18.20
2022-07-30T15:47:04.031Z,18.10
2022-07-30T15:49:32.577Z,18.10
2022-07-30T15:52:01.369Z,18.00
2022-07-30T15:54:29.074Z,18.00
2022-07-30T15:57:01.787Z,18.00
2022-07-30T15:59:30.637Z,18.00
2022-07-30T16:01:59.347Z,17.90
2022-07-30T16:04:31.439Z,17.90
2022-07-30T16:07:05.045Z,17.90
2022-07-30T16:09:33.257Z,17.90
2022-07-30T16:12:03.511Z,17.90
2022-07-30T16:14:34.365Z,17.80
2022-07-30T16:17:01.991Z,17.80
2022-07-30T16:19:29.778Z,17.80
2022-07-30T16:21:58.489Z,17.80
2022-07-30T16:24:27.059Z,17.70
2022-07-30T16:26:55.026Z,17.70
2022-07-30T16:29:22.800Z,17.70
2022-07-30T16:31:50.837Z,17.70
2022-07-30T16:34:26.581Z,17.70
2022-07-30T16:36:58.227Z,17.60
2022-07-30T16:39:28.479Z,17.60
2022-07-30T16:41:57.321Z,17.60
2022-07-30T16:44:27.643Z,17.60
2022-07-30T16:46:55.886Z,17.50
2022-07-30T16:49:24.116Z,17.50
2022-07-30T16:51:52.288Z,17.50
2022-07-30T16:54:20.978Z,17.50
2022-07-30T16:56:53.040Z,17.50
2022-07-30T16:59:21.303Z,17.50
2022-07-30T17:01:50.369Z,17.60
2022-07-30T17:04:18.388Z,17.60
2022-07-30T17:06:49.220Z,17.60
2022-07-30T17:09:17.180Z,17.60
2022-07-30T17:11:52.186Z,17.60
2022-07-30T17:14:23.106Z,17.60
2022-07-30T17:16:51.508Z,17.50
2022-07-30T17:19:19.454Z,17.50
2022-07-30T17:21:46.941Z,17.60
2022-07-30T17:24:14.575Z,17.60
2022-07-30T17:26:44.235Z,17.50
2022-07-30T17:29:15.460Z,17.50
2022-07-30T17:31:46.736Z,17.60
2022-07-30T17:34:16.602Z,17.60
2022-07-30T17:36:52.429Z,17.60
2022-07-30T17:40:29.927Z,17.60
2022-07-30T17:42:12.006Z,17.60
2022-07-30T17:44:41.767Z,17.60
2022-07-30T17:47:15.133Z,17.60
2022-07-30T17:49:44.831Z,17.60
2022-07-30T17:52:13.036Z,17.60
2022-07-30T17:54:40.851Z,17.60
2022-07-30T17:57:08.597Z,17.50
2022-07-30T17:59:36.323Z,17.60
2022-07-30T18:02:05.127Z,17.50
2022-07-30T18:04:33.963Z,17.50
2022-07-30T18:07:02.848Z,17.50
2022-07-30T18:09:39.514Z,17.50
2022-07-30T18:12:10.154Z,17.50
2022-07-30T18:14:37.934Z,17.50
2022-07-30T18:17:07.455Z,17.50
2022-07-30T18:19:37.898Z,17.50
2022-07-30T18:22:08.806Z,17.50
2022-07-30T18:24:40.561Z,17.50
2022-07-30T18:27:13.264Z,17.40
2022-07-30T18:29:41.574Z,17.40
2022-07-30T18:32:09.446Z,17.50
2022-07-30T18:34:37.266Z,17.50
2022-07-30T18:37:05.126Z,17.50
2022-07-30T18:39:32.747Z,17.50
2022-07-30T18:42:00.712Z,17.50
2022-07-30T18:44:28.746Z,17.50
2022-07-30T18:46:56.205Z,17.50
2022-07-30T18:49:36.520Z,17.50
2022-07-30T18:52:08.155Z,17.50
2022-07-30T18:54:37.070Z,17.50
2022-07-30T18:57:08.177Z,17.50
2022-07-30T18:59:38.812Z,17.50
2022-07-30T19:02:08.772Z,17.40
2022-07-30T19:04:36.902Z,17.40
2022-07-30T19:07:04.598Z,17.40
2022-07-30T19:09:32.465Z,17.40
2022-07-30T19:12:00.628Z,17.40
2022-07-30T19:14:29.321Z,17.40
2022-07-30T19:16:59.259Z,17.40
2022-07-30T19:19:27.827Z,17.40
2022-07-30T19:21:56.176Z,17.40
2022-07-30T19:24:24.254Z,17.40
2022-07-30T19:26:58.320Z,17.40
2022-07-30T19:29:26.705Z,17.30
2022-07-30T19:31:54.802Z,17.30
2022-07-30T19:34:22.489Z,17.40
2022-07-30T19:36:53.962Z,17.30
2022-07-30T19:39:25.501Z,17.30
2022-07-30T19:41:54.973Z,17.30
2022-07-30T19:44:22.952Z,17.30
2022-07-30T19:46:52.512Z,17.30
2022-07-30T19:49:21.863Z,17.30
2022-07-30T19:52:17.466Z,17.30
2022-07-30T19:54:45.170Z,17.30
2022-07-30T19:57:13.672Z,17.30
2022-07-30T19:59:46.437Z,17.30
2022-07-30T20:02:27.522Z,17.20
2022-07-30T20:04:55.285Z,17.20
2022-07-30T20:07:27.505Z,17.20
2022-07-30T20:10:04.746Z,17.20
2022-07-30T20:12:37.474Z,17.20
2022-07-30T20:15:07.103Z,17.20
2022-07-30T20:17:38.579Z,17.20
2022-07-30T20:20:09.621Z,17.20
2022-07-30T20:22:37.090Z,17.20
2022-07-30T20:25:08.511Z,17.20
2022-07-30T20:27:38.750Z,17.10
2022-07-30T20:30:12.062Z,17.10
2022-07-30T20:32:46.824Z,17.20
2022-07-30T20:35:14.708Z,17.20
2022-07-30T20:37:55.590Z,17.20
2022-07-30T20:40:28.089Z,17.20
2022-07-30T20:42:57.489Z,17.10
2022-07-30T20:45:40.683Z,17.10
2022-07-30T20:48:16.989Z,17.20
2022-07-30T20:50:49.180Z,17.20
2022-07-30T20:53:17.691Z,17.20
2022-07-30T20:55:47.015Z,17.20
2022-07-30T20:58:17.468Z,17.20
2022-07-30T21:00:49.572Z,17.20
2022-07-30T21:03:21.565Z,17.20
2022-07-30T21:05:52.537Z,17.20
2022-07-30T21:08:25.214Z,17.20
2022-07-30T21:10:57.479Z,17.20
2022-07-30T21:13:28.430Z,17.20
2022-07-30T21:16:03.109Z,17.20
2022-07-30T21:18:33.039Z,17.20
2022-07-30T21:21:05.000Z,17.20
2022-07-30T21:23:33.397Z,17.20
2022-07-30T21:26:05.816Z,17.20
2022-07-30T21:31:55.965Z,17.20
2022-07-30T21:34:11.772Z,17.20
2022-07-30T21:36:40.510Z,17.30
2022-07-30T21:39:09.854Z,17.20
2022-07-30T21:41:41.910Z,17.20
2022-07-30T21:44:10.411Z,17.20
2022-07-30T21:46:40.209Z,17.20
2022-07-30T21:49:09.728Z,17.20
2022-07-30T21:51:40.059Z,17.20
2022-07-30T21:54:08.356Z,17.20
2022-07-30T21:56:41.714Z,17.20
2022-07-30T21:59:09.788Z,17.30
2022-07-30T22:01:47.630Z,17.30
2022-07-30T22:04:16.425Z,17.20
2022-07-30T22:06:44.426Z,17.30
2022-07-30T22:09:19.657Z,17.20
2022-07-30T22:12:06.304Z,17.20
2022-07-30T22:14:37.700Z,17.30
2022-07-30T22:17:22.770Z,17.30
2022-07-30T22:19:52.760Z,17.30
2022-07-30T22:22:26.588Z,17.30
2022-07-30T22:24:58.326Z,17.30
2022-07-30T22:27:39.841Z,17.30
2022-07-30T22:30:13.720Z,17.30
2022-07-30T22:32:42.312Z,17.20
2022-07-30T22:35:13.226Z,17.20
2022-07-30T22:37:44.527Z,17.20
2022-07-30T22:40:14.086Z,17.20
2022-07-30T22:42:49.748Z,17.20
2022-07-30T22:45:34.053Z,17.20
2022-07-30T22:48:10.753Z,17.20
2022-07-30T22:50:40.876Z,17.20
2022-07-30T22:54:02.849Z,17.20
2022-07-30T22:56:02.251Z,17.20
2022-07-30T22:58:31.243Z,17.20
2022-07-30T23:00:59.569Z,17.10
2022-07-30T23:03:27.080Z,17.20
2022-07-30T23:05:55.161Z,17.10
2022-07-30T23:08:29.953Z,17.10
2022-07-30T23:11:00.356Z,17.10
2022-07-30T23:12:27.316Z,17.20
2022-07-30T23:13:28.994Z,17.10
2022-07-30T23:15:57.371Z,17.00
2022-07-30T23:18:24.968Z,17.00
2022-07-30T23:20:54.148Z,17.00
2022-07-30T23:23:23.500Z,17.00
2022-07-30T23:25:51.676Z,16.90
2022-07-30T23:28:19.287Z,16.90
2022-07-30T23:30:47.102Z,16.90
2022-07-30T23:33:15.280Z,16.90
2022-07-30T23:35:44.903Z,16.80
2022-07-30T23:38:18.107Z,16.80
2022-07-30T23:40:46.128Z,16.80
2022-07-30T23:43:14.518Z,16.80
2022-07-30T23:45:43.958Z,16.70
2022-07-30T23:48:11.849Z,16.70
2022-07-30T23:50:40.675Z,16.70
2022-07-30T23:53:11.641Z,16.70
2022-07-30T23:55:42.787Z,16.60
2022-07-30T23:58:13.325Z,16.60
